createdAt,value
2018-08-06T00:00:39.460Z,70.72
2018-08-06T00:03:07.763Z,71.62
2018-08-06T00:05:35.685Z,71.75
2018-08-06T00:08:04.189Z,71.50
2018-08-06T00:10:32.599Z,70.80
2018-08-06T00:15:28.669Z,72.19
2018-08-06T00:17:57.109Z,72.88
2018-08-06T00:20:25.484Z,73.58
2018-08-06T00:22:53.878Z,74.47
2018-08-06T00:25:21.986Z,74.80
2018-08-06T00:27:50.325Z,75.61
2018-08-06T00:30:19.725Z,75.62
2018-08-06T00:32:48.384Z,74.91
2018-08-06T00:35:16.734Z,73.88
2018-08-06T00:37:44.685Z,73.39
2018-08-06T00:40:14.726Z,73.11
2018-08-06T00:42:43.498Z,72.41
2018-08-06T00:45:14.454Z,72.06
2018-08-06T00:47:42.649Z,72.04
2018-08-06T00:50:11.001Z,73.65
2018-08-06T00:52:38.949Z,73.42
2018-08-06T00:55:11.021Z,75.11
2018-08-06T00:57:39.234Z,75.06
2018-08-06T01:00:09.962Z,75.24
2018-08-06T01:02:37.852Z,74.58
2018-08-06T01:05:07.317Z,74.81
2018-08-06T01:07:35.374Z,74.89
2018-08-06T01:10:04.721Z,74.98
2018-08-06T01:12:32.694Z,75.34
2018-08-06T01:15:01.062Z,74.25
2018-08-06T01:17:29.339Z,74.31
2018-08-06T01:19:57.717Z,74.92
2018-08-06T01:22:26.102Z,75.09
2018-08-06T01:24:54.055Z,74.46
2018-08-06T01:27:22.451Z,74.48
2018-08-06T01:29:50.826Z,74.52
2018-08-06T01:32:19.246Z,75.15
2018-08-06T01:34:47.114Z,74.20
2018-08-06T01:37:14.990Z,74.93
2018-08-06T01:39:43.170Z,74.84
2018-08-06T01:42:11.630Z,74.40
2018-08-06T01:44:40.071Z,76.02
2018-08-06T01:47:07.976Z,75.03
2018-08-06T01:49:35.885Z,74.91
2018-08-06T01:52:03.750Z,75.02
2018-08-06T01:54:31.597Z,74.52
2018-08-06T01:56:59.533Z,74.04
2018-08-06T01:59:27.397Z,74.56
2018-08-06T02:01:55.250Z,74.83
2018-08-06T02:04:23.170Z,74.32
2018-08-06T02:06:50.978Z,73.90
2018-08-06T02:09:18.863Z,73.92
2018-08-06T02:11:46.704Z,74.62
2018-08-06T02:14:14.548Z,74.82
2018-08-06T02:16:42.774Z,75.38
2018-08-06T02:19:11.223Z,75.08
2018-08-06T02:21:39.593Z,74.54
2018-08-06T02:24:08.073Z,74.41
2018-08-06T02:26:36.545Z,74.96
2018-08-06T02:29:04.708Z,75.16
2018-08-06T02:31:33.094Z,75.44
2018-08-06T02:34:01.612Z,75.68
2018-08-06T02:36:29.849Z,76.20
2018-08-06T02:38:57.762Z,76.11
2018-08-06T02:41:26.232Z,75.36
2018-08-06T02:43:54.478Z,76.27
2018-08-06T02:46:22.850Z,74.39
2018-08-06T02:48:50.800Z,74.92
2018-08-06T02:51:19.206Z,74.27
2018-08-06T02:53:47.442Z,73.09
2018-08-06T02:56:15.858Z,73.39
2018-08-06T02:58:44.136Z,75.03
2018-08-06T03:01:12.510Z,74.77
2018-08-06T03:03:40.377Z,73.76
2018-08-06T03:06:08.302Z,72.84
2018-08-06T03:08:36.718Z,73.15
2018-08-06T03:11:05.203Z,73.13
2018-08-06T03:13:33.364Z,74.46
2018-08-06T03:16:01.862Z,75.08
2018-08-06T03:18:30.338Z,75.55
2018-08-06T03:20:58.753Z,74.62
2018-08-06T03:23:27.209Z,75.76
2018-08-06T03:25:55.471Z,75.51
2018-08-06T03:28:23.853Z,75.08
2018-08-06T03:30:52.331Z,74.09
2018-08-06T03:33:20.712Z,73.66
2018-08-06T03:35:48.784Z,73.91
2018-08-06T03:38:17.256Z,75.35
2018-08-06T03:40:45.589Z,74.45
2018-08-06T03:43:13.493Z,74.62
2018-08-06T03:45:41.879Z,74.20
2018-08-06T03:48:10.262Z,74.75
2018-08-06T03:50:38.637Z,74.70
2018-08-06T03:53:07.123Z,74.12
2018-08-06T03:55:35.637Z,72.82
2018-08-06T03:58:03.861Z,73.21
2018-08-06T04:00:31.797Z,72.73
2018-08-06T04:02:59.713Z,73.09
2018-08-06T04:05:27.613Z,73.35
2018-08-06T04:07:55.456Z,73.53
2018-08-06T04:10:23.367Z,72.98
2018-08-06T04:12:51.262Z,73.81
2018-08-06T04:15:19.274Z,73.25
2018-08-06T04:17:47.193Z,72.55
2018-08-06T04:20:15.985Z,73.01
2018-08-06T04:22:44.158Z,73.29
2018-08-06T04:25:12.238Z,72.87
2018-08-06T04:27:40.124Z,72.87
2018-08-06T04:30:10.316Z,72.92
2018-08-06T04:32:38.708Z,71.63
2018-08-06T04:35:07.177Z,72.26
2018-08-06T04:37:35.497Z,71.63
2018-08-06T04:40:04.354Z,71.72
2018-08-06T04:42:32.622Z,72.27
2018-08-06T04:45:00.478Z,72.27
2018-08-06T04:47:28.410Z,72.38
2018-08-06T04:49:56.312Z,72.46
2018-08-06T04:52:24.500Z,72.60
2018-08-06T04:54:52.921Z,72.17
2018-08-06T04:57:21.254Z,71.85
2018-08-06T04:59:49.230Z,71.23
2018-08-06T05:02:17.141Z,70.64
2018-08-06T05:04:45.025Z,70.36
2018-08-06T05:07:12.877Z,70.12
2018-08-06T05:09:41.961Z,69.28
2018-08-06T05:12:10.394Z,69.68
2018-08-06T05:14:39.742Z,68.71
2018-08-06T05:17:08.274Z,68.66
2018-08-06T05:19:37.625Z,67.73
2018-08-06T05:22:06.200Z,67.75
2018-08-06T05:24:34.428Z,67.29
2018-08-06T05:27:02.453Z,66.24
2018-08-06T05:29:30.444Z,66.20
2018-08-06T05:31:58.511Z,65.50
2018-08-06T05:34:26.805Z,64.85
2018-08-06T05:36:55.082Z,65.08
2018-08-06T05:39:23.481Z,63.99
2018-08-06T05:41:51.954Z,63.69
2018-08-06T05:44:20.428Z,63.14
2018-08-06T05:46:48.698Z,63.62
2018-08-06T05:49:17.418Z,62.40
2018-08-06T05:51:45.863Z,62.50
2018-08-06T05:54:14.232Z,61.99
2018-08-06T05:56:42.625Z,62.15
2018-08-06T05:59:10.970Z,61.63
2018-08-06T06:01:39.372Z,61.52
2018-08-06T06:04:07.461Z,61.61
2018-08-06T06:06:36.073Z,61.67
2018-08-06T06:09:07.813Z,61.46
2018-08-06T06:11:35.765Z,61.26
2018-08-06T06:14:04.095Z,61.85
2018-08-06T06:16:32.077Z,63.19
2018-08-06T06:19:00.061Z,62.58
2018-08-06T06:21:28.041Z,62.95
2018-08-06T06:23:55.961Z,61.91
2018-08-06T06:26:24.007Z,62.20
2018-08-06T06:28:52.000Z,61.71
2018-08-06T06:31:21.220Z,62.26
2018-08-06T06:33:49.218Z,60.96
2018-08-06T06:36:17.137Z,60.79
2018-08-06T06:38:45.102Z,59.40
2018-08-06T06:41:13.044Z,59.03
2018-08-06T06:43:41.053Z,58.55
2018-08-06T06:46:09.122Z,59.07
2018-08-06T06:48:37.441Z,59.50
2018-08-06T06:51:05.805Z,58.58
2018-08-06T06:53:34.091Z,58.59
2018-08-06T06:56:02.358Z,57.89
2018-08-06T06:58:30.342Z,56.41
2018-08-06T07:00:58.710Z,56.02
2018-08-06T07:03:27.395Z,56.03
2018-08-06T07:05:55.500Z,56.06
2018-08-06T07:08:24.037Z,55.43
2018-08-06T07:10:52.322Z,55.47
2018-08-06T07:13:20.701Z,55.58
2018-08-06T07:15:48.903Z,55.29
2018-08-06T07:18:17.458Z,55.68
2018-08-06T07:20:45.740Z,54.68
2018-08-06T07:23:13.665Z,55.70
2018-08-06T07:25:41.653Z,55.68
2018-08-06T07:28:09.689Z,55.58
2018-08-06T07:30:37.658Z,55.48
2018-08-06T07:33:05.788Z,55.38
2018-08-06T07:35:33.722Z,55.24
2018-08-06T07:38:01.666Z,53.88
2018-08-06T07:40:29.689Z,54.43
2018-08-06T07:42:58.275Z,54.46
2018-08-06T07:45:26.649Z,54.54
2018-08-06T07:47:55.124Z,54.35
2018-08-06T07:50:23.298Z,53.24
2018-08-06T07:52:51.273Z,52.04
2018-08-06T07:55:19.334Z,52.02
2018-08-06T07:57:47.276Z,49.48
2018-08-06T08:00:16.922Z,49.06
2018-08-06T08:02:44.930Z,48.32
2018-08-06T08:05:14.331Z,49.33
2018-08-06T08:07:43.895Z,49.56
2018-08-06T08:10:15.179Z,48.08
2018-08-06T08:12:44.085Z,49.54
2018-08-06T08:15:15.309Z,49.44
2018-08-06T08:17:44.629Z,49.09
2018-08-06T08:20:14.138Z,50.94
2018-08-06T08:22:42.553Z,48.38
2018-08-06T08:25:17.540Z,51.03
2018-08-06T08:27:45.978Z,51.99
2018-08-06T08:30:15.112Z,48.65
2018-08-06T08:32:43.058Z,52.23
2018-08-06T08:35:11.997Z,47.90
2018-08-06T08:37:40.115Z,47.38
2018-08-06T08:40:10.473Z,46.47
2018-08-06T08:42:38.985Z,46.84
2018-08-06T08:45:09.530Z,45.81
2018-08-06T08:47:37.740Z,46.21
2018-08-06T08:50:07.299Z,46.56
2018-08-06T08:52:35.616Z,47.29
2018-08-06T08:55:03.749Z,46.97
2018-08-06T08:57:32.210Z,46.17
2018-08-06T09:00:00.623Z,47.39
2018-08-06T09:02:28.992Z,43.39
2018-08-06T09:04:57.702Z,42.69
2018-08-06T09:07:25.616Z,45.36
2018-08-06T09:09:54.616Z,43.26
2018-08-06T09:12:23.153Z,39.07
2018-08-06T09:14:51.114Z,39.14
2018-08-06T09:17:19.125Z,46.27
2018-08-06T09:19:47.139Z,38.65
2018-08-06T09:22:15.131Z,42.11
2018-08-06T09:24:43.138Z,38.56
2018-08-06T09:27:11.133Z,47.95
2018-08-06T09:29:39.104Z,37.29
2018-08-06T09:32:08.401Z,36.84
2018-08-06T09:34:37.574Z,41.04
2018-08-06T09:37:05.610Z,34.13
2018-08-06T09:39:33.508Z,38.43
2018-08-06T09:42:01.422Z,45.96
2018-08-06T09:44:29.386Z,47.50
2018-08-06T09:46:57.359Z,39.71
2018-08-06T09:49:25.305Z,39.91
2018-08-06T09:51:53.573Z,42.94
2018-08-06T09:54:22.054Z,33.96
2018-08-06T09:56:50.434Z,45.51
2018-08-06T09:59:18.697Z,39.93
2018-08-06T10:01:52.464Z,38.62
2018-08-06T10:04:20.801Z,47.43
2018-08-06T10:06:49.324Z,46.41
2018-08-06T10:09:17.143Z,41.21
2018-08-06T10:11:45.626Z,47.12
2018-08-06T10:14:13.986Z,45.87
2018-08-06T10:16:42.013Z,40.82
2018-08-06T10:19:10.060Z,38.62
2018-08-06T10:21:38.043Z,42.26
2018-08-06T10:24:06.449Z,45.46
2018-08-06T10:26:34.886Z,35.36
2018-08-06T10:29:03.441Z,34.38
2018-08-06T10:31:31.817Z,34.86
2018-08-06T10:34:00.198Z,43.14
2018-08-06T10:36:28.534Z,36.73
2018-08-06T10:38:57.058Z,36.24
2018-08-06T10:41:25.537Z,39.71
2018-08-06T10:43:53.434Z,34.91
2018-08-06T10:46:21.423Z,36.72
2018-08-06T10:48:49.335Z,41.70
2018-08-06T10:51:17.319Z,43.58
2018-08-06T10:53:45.324Z,38.00
2018-08-06T10:56:13.284Z,36.02
2018-08-06T10:58:41.238Z,46.98
2018-08-06T11:01:09.165Z,37.88
2018-08-06T11:03:37.105Z,36.68
2018-08-06T11:06:05.253Z,35.39
2018-08-06T11:08:33.593Z,35.29
2018-08-06T11:11:01.961Z,35.66
2018-08-06T11:13:30.147Z,42.84
2018-08-06T11:15:58.729Z,36.30
2018-08-06T11:18:26.663Z,34.61
2018-08-06T11:20:54.626Z,45.82
2018-08-06T11:23:22.626Z,35.59
2018-08-06T11:25:51.014Z,41.04
2018-08-06T11:28:19.422Z,36.44
2018-08-06T11:30:47.850Z,46.53
2018-08-06T11:33:15.823Z,40.47
2018-08-06T11:35:43.842Z,38.56
2018-08-06T11:38:11.983Z,37.39
2018-08-06T11:40:40.246Z,37.43
2018-08-06T11:43:08.337Z,45.07
2018-08-06T11:45:36.288Z,36.53
2018-08-06T11:48:04.886Z,36.54
2018-08-06T11:50:33.161Z,35.52
2018-08-06T11:53:01.642Z,35.04
2018-08-06T11:55:29.885Z,34.54
2018-08-06T11:57:58.289Z,36.30
2018-08-06T12:00:27.586Z,43.98
2018-08-06T12:02:55.966Z,39.04
2018-08-06T12:05:23.925Z,46.56
2018-08-06T12:07:51.909Z,42.97
2018-08-06T12:10:19.978Z,37.83
2018-08-06T12:12:48.818Z,37.57
2018-08-06T12:15:16.855Z,36.43
2018-08-06T12:17:45.300Z,36.16
2018-08-06T12:20:15.256Z,35.48
2018-08-06T12:22:45.672Z,39.30
2018-08-06T12:25:15.005Z,37.77
2018-08-06T12:27:44.091Z,33.79
2018-08-06T12:30:15.211Z,43.05
2018-08-06T12:32:44.133Z,37.22
2018-08-06T12:35:12.507Z,39.73
2018-08-06T12:37:40.935Z,45.25
2018-08-06T12:40:13.709Z,36.55
2018-08-06T12:42:42.249Z,36.65
2018-08-06T12:45:11.428Z,37.95
2018-08-06T12:47:40.078Z,35.67
2018-08-06T12:50:09.730Z,37.32
2018-08-06T12:52:38.706Z,35.52
2018-08-06T12:55:08.130Z,36.24
2018-08-06T12:57:36.713Z,34.60
2018-08-06T13:00:09.854Z,36.68
2018-08-06T13:02:38.234Z,37.70
2018-08-06T13:05:06.662Z,36.60
2018-08-06T13:07:35.180Z,36.50
2018-08-06T13:10:03.669Z,35.21
2018-08-06T13:12:31.946Z,36.28
2018-08-06T13:15:00.327Z,35.94
2018-08-06T13:17:28.815Z,40.94
2018-08-06T13:19:57.675Z,44.17
2018-08-06T13:22:26.179Z,35.37
2018-08-06T13:24:55.016Z,33.99
2018-08-06T13:27:23.211Z,41.84
2018-08-06T13:29:51.705Z,41.49
2018-08-06T13:32:20.105Z,35.35
2018-08-06T13:34:48.687Z,35.67
2018-08-06T13:37:17.058Z,34.93
2018-08-06T13:39:45.333Z,33.78
2018-08-06T13:42:13.717Z,33.12
2018-08-06T13:44:42.235Z,34.22
2018-08-06T13:47:10.670Z,38.26
2018-08-06T13:49:39.149Z,35.73
2018-08-06T13:52:07.429Z,43.50
2018-08-06T13:54:35.815Z,34.72
2018-08-06T13:57:04.078Z,35.18
2018-08-06T13:59:32.686Z,35.33
2018-08-06T14:02:01.055Z,37.58
2018-08-06T14:04:28.945Z,37.41
2018-08-06T14:06:57.553Z,36.18
2018-08-06T14:09:25.491Z,37.83
2018-08-06T14:11:53.528Z,36.58
2018-08-06T14:14:21.510Z,38.10
2018-08-06T14:16:49.479Z,37.64
2018-08-06T14:19:17.383Z,44.88
2018-08-06T14:21:45.434Z,42.69
2018-08-06T14:24:13.469Z,36.37
2018-08-06T14:26:41.954Z,38.13
2018-08-06T14:29:10.330Z,37.90
2018-08-06T14:31:38.821Z,35.08
2018-08-06T14:34:07.496Z,36.30
2018-08-06T14:36:36.077Z,40.35
2018-08-06T14:39:07.794Z,36.20
2018-08-06T14:41:36.305Z,37.75
2018-08-06T14:44:05.323Z,41.72
2018-08-06T14:46:34.077Z,38.67
2018-08-06T14:49:02.466Z,38.79
2018-08-06T14:51:30.849Z,41.66
2018-08-06T14:53:59.228Z,35.18
2018-08-06T14:56:27.913Z,42.44
2018-08-06T14:58:56.490Z,34.84
2018-08-06T15:01:24.869Z,43.90
2018-08-06T15:03:53.355Z,37.17
2018-08-06T15:06:22.087Z,42.68
2018-08-06T15:08:50.583Z,35.12
2018-08-06T15:11:19.051Z,36.03
2018-08-06T15:13:47.573Z,35.86
2018-08-06T15:16:15.962Z,41.43
2018-08-06T15:18:44.434Z,44.33
2018-08-06T15:21:12.913Z,42.02
2018-08-06T15:23:41.303Z,40.92
2018-08-06T15:26:09.873Z,36.76
2018-08-06T15:28:38.058Z,38.36
2018-08-06T15:31:06.951Z,36.38
2018-08-06T15:33:35.417Z,37.73
2018-08-06T15:36:03.694Z,37.51
2018-08-06T15:38:31.880Z,37.01
2018-08-06T15:41:00.040Z,37.20
2018-08-06T15:43:28.379Z,38.56
2018-08-06T15:45:56.665Z,36.26
2018-08-06T15:48:25.174Z,37.34
2018-08-06T15:50:53.663Z,43.86
2018-08-06T15:53:21.930Z,40.27
2018-08-06T15:55:50.418Z,36.73
2018-08-06T15:58:18.577Z,41.42
2018-08-06T16:00:46.975Z,37.69
2018-08-06T16:03:15.534Z,35.90
2018-08-06T16:05:43.932Z,37.52
2018-08-06T16:08:12.394Z,37.12
2018-08-06T16:10:40.572Z,37.58
2018-08-06T16:13:08.965Z,36.81
2018-08-06T16:15:37.316Z,37.35
2018-08-06T16:18:05.891Z,38.06
2018-08-06T16:20:34.325Z,39.63
2018-08-06T16:23:02.771Z,38.53
2018-08-06T16:25:30.841Z,38.42
2018-08-06T16:27:59.329Z,37.95
2018-08-06T16:30:27.805Z,38.63
2018-08-06T16:32:56.084Z,37.19
2018-08-06T16:35:24.720Z,38.23
2018-08-06T16:37:55.084Z,37.57
2018-08-06T16:40:23.362Z,43.61
2018-08-06T16:42:52.005Z,39.27
2018-08-06T16:45:20.534Z,39.04
2018-08-06T16:47:49.145Z,38.75
2018-08-06T16:50:17.961Z,41.04
2018-08-06T16:52:46.348Z,40.03
2018-08-06T16:55:14.874Z,45.59
2018-08-06T16:57:43.338Z,41.37
2018-08-06T17:00:14.373Z,40.95
2018-08-06T17:02:42.644Z,43.27
2018-08-06T17:05:12.162Z,41.76
2018-08-06T17:07:40.897Z,40.58
2018-08-06T17:10:12.737Z,40.43
2018-08-06T17:12:42.193Z,40.75
2018-08-06T17:15:11.449Z,46.38
2018-08-06T17:17:39.604Z,40.80
2018-08-06T17:20:10.713Z,41.35
2018-08-06T17:22:38.777Z,44.36
2018-08-06T17:25:08.085Z,46.32
2018-08-06T17:27:36.112Z,41.73
2018-08-06T17:30:04.606Z,41.35
2018-08-06T17:32:32.545Z,41.46
2018-08-06T17:35:00.798Z,42.46
2018-08-06T17:37:29.261Z,43.12
2018-08-06T17:39:57.559Z,43.38
2018-08-06T17:42:25.522Z,42.88
2018-08-06T17:44:53.976Z,42.58
2018-08-06T17:47:22.464Z,44.01
2018-08-06T17:49:50.405Z,43.09
2018-08-06T17:52:18.818Z,43.66
2018-08-06T17:54:47.198Z,43.72
2018-08-06T17:57:15.785Z,43.62
2018-08-06T17:59:44.063Z,44.27
2018-08-06T18:02:12.549Z,43.70
2018-08-06T18:04:40.818Z,43.83
2018-08-06T18:07:09.181Z,43.60
2018-08-06T18:09:37.566Z,44.63
2018-08-06T18:12:05.946Z,44.19
2018-08-06T18:14:34.435Z,44.32
2018-08-06T18:17:02.808Z,44.54
2018-08-06T18:19:31.073Z,43.47
2018-08-06T18:21:59.350Z,43.62
2018-08-06T18:24:27.725Z,44.51
2018-08-06T18:26:56.100Z,42.95
2018-08-06T18:29:24.286Z,43.66
2018-08-06T18:31:52.666Z,44.44
2018-08-06T18:34:20.995Z,43.60
2018-08-06T18:36:49.043Z,43.24
2018-08-06T18:39:17.582Z,43.74
2018-08-06T18:41:46.065Z,45.02
2018-08-06T18:44:14.044Z,43.13
2018-08-06T18:46:42.216Z,43.16
2018-08-06T18:49:10.498Z,43.47
2018-08-06T18:51:38.865Z,42.29
2018-08-06T18:54:07.441Z,43.75
2018-08-06T18:56:35.934Z,44.32
2018-08-06T18:59:04.306Z,42.55
2018-08-06T19:01:32.617Z,43.61
2018-08-06T19:04:01.062Z,43.06
2018-08-06T19:06:29.443Z,42.95
2018-08-06T19:08:57.914Z,45.73
2018-08-06T19:11:26.513Z,44.72
2018-08-06T19:14:00.207Z,42.97
2018-08-06T19:16:28.577Z,43.00
2018-08-06T19:19:02.218Z,43.73
2018-08-06T19:21:30.157Z,44.03
2018-08-06T19:24:03.989Z,48.45
2018-08-06T19:26:32.333Z,46.84
2018-08-06T19:29:00.615Z,44.10
2018-08-06T19:31:29.094Z,44.09
2018-08-06T19:33:57.816Z,44.22
2018-08-06T19:36:25.813Z,44.46
2018-08-06T19:38:54.321Z,48.73
2018-08-06T19:41:22.594Z,45.94
2018-08-06T19:43:50.518Z,47.69
2018-08-06T19:46:18.837Z,46.15
2018-08-06T19:48:47.422Z,46.90
2018-08-06T19:51:15.602Z,48.27
2018-08-06T19:53:44.192Z,45.80
2018-08-06T19:56:14.038Z,46.66
2018-08-06T19:58:42.584Z,47.60
2018-08-06T20:01:10.961Z,47.76
2018-08-06T20:03:39.217Z,48.87
2018-08-06T20:06:07.813Z,49.31
2018-08-06T20:08:36.193Z,49.55
2018-08-06T20:11:04.882Z,50.10
2018-08-06T20:13:33.461Z,50.55
2018-08-06T20:16:01.829Z,50.98
2018-08-06T20:18:30.346Z,51.15
2018-08-06T20:20:58.689Z,51.21
2018-08-06T20:23:27.178Z,51.03
2018-08-06T20:25:55.548Z,51.36
2018-08-06T20:28:24.043Z,51.08
2018-08-06T20:30:52.609Z,51.24
2018-08-06T20:33:20.998Z,52.16
2018-08-06T20:35:49.269Z,52.17
2018-08-06T20:38:17.644Z,52.37
2018-08-06T20:40:46.135Z,52.11
2018-08-06T20:43:14.479Z,52.46
2018-08-06T20:45:42.877Z,52.74
2018-08-06T20:48:11.262Z,53.05
2018-08-06T20:50:39.641Z,53.01
2018-08-06T20:53:07.671Z,53.81
2018-08-06T20:55:36.090Z,54.94
2018-08-06T20:58:04.561Z,55.99
2018-08-06T21:00:32.502Z,56.25
2018-08-06T21:03:01.083Z,56.16
2018-08-06T21:05:29.605Z,57.62
2018-08-06T21:07:57.617Z,58.23
2018-08-06T21:10:26.049Z,58.24
2018-08-06T21:12:54.438Z,58.85
2018-08-06T21:15:22.700Z,58.09
2018-08-06T21:17:51.177Z,58.77
2018-08-06T21:20:19.562Z,58.61
2018-08-06T21:22:48.745Z,58.53
2018-08-06T21:25:17.024Z,58.86
2018-08-06T21:27:46.485Z,58.19
2018-08-06T21:30:17.821Z,58.21
2018-08-06T21:32:48.345Z,58.33
2018-08-06T21:35:17.653Z,58.53
2018-08-06T21:37:47.196Z,59.20
2018-08-06T21:40:15.595Z,59.48
2018-08-06T21:42:44.068Z,59.33
2018-08-06T21:45:12.445Z,59.39
2018-08-06T21:47:41.032Z,59.76
2018-08-06T21:50:10.235Z,59.92
2018-08-06T21:52:38.710Z,59.73
2018-08-06T21:55:07.650Z,60.37
2018-08-06T21:57:36.084Z,61.01
2018-08-06T22:00:40.814Z,62.26
2018-08-06T22:03:13.496Z,61.47
2018-08-06T22:05:42.138Z,62.00
2018-08-06T22:08:10.658Z,62.21
2018-08-06T22:10:39.032Z,62.33
2018-08-06T22:13:08.068Z,61.65
2018-08-06T22:15:36.613Z,62.11
2018-08-06T22:18:05.261Z,63.21
2018-08-06T22:20:33.665Z,63.21
2018-08-06T22:23:02.054Z,62.99
2018-08-06T22:25:30.412Z,63.92
2018-08-06T22:27:58.808Z,63.49
2018-08-06T22:30:27.169Z,62.67
2018-08-06T22:32:55.555Z,62.83
2018-08-06T22:35:23.633Z,61.56
2018-08-06T22:37:52.014Z,61.66
2018-08-06T22:40:20.492Z,60.81
2018-08-06T22:42:48.569Z,60.93
2018-08-06T22:45:16.838Z,61.05
2018-08-06T22:47:45.117Z,61.70
2018-08-06T22:50:13.749Z,62.03
2018-08-06T22:52:42.381Z,62.69
2018-08-06T22:55:11.673Z,62.70
2018-08-06T22:57:40.009Z,62.43
2018-08-06T23:00:12.944Z,62.41
2018-08-06T23:02:41.885Z,63.04
2018-08-06T23:05:11.139Z,63.52
2018-08-06T23:07:39.758Z,64.21
2018-08-06T23:10:15.154Z,63.27
2018-08-06T23:12:43.936Z,63.66
2018-08-06T23:15:14.603Z,63.72
2018-08-06T23:17:43.682Z,64.16
2018-08-06T23:20:11.950Z,64.61
2018-08-06T23:22:40.315Z,64.62
2018-08-06T23:25:08.897Z,64.06
2018-08-06T23:27:37.949Z,63.42
2018-08-06T23:30:12.317Z,63.95
2018-08-06T23:32:40.902Z,63.52
2018-08-06T23:35:10.563Z,63.63
2018-08-06T23:37:39.849Z,63.82
2018-08-06T23:40:08.941Z,63.65
2018-08-06T23:42:37.932Z,63.25
2018-08-06T23:45:07.405Z,64.95
2018-08-06T23:47:35.677Z,65.50
2018-08-06T23:50:04.709Z,66.17
2018-08-06T23:52:32.953Z,65.70
2018-08-06T23:55:01.517Z,65.40
2018-08-06T23:57:29.889Z,64.99
2018-08-06T23:59:58.433Z,65.57
